createdAt,value
2018-12-08T00:01:06.720Z,53.80
2018-12-08T00:03:38.801Z,52.80
2018-12-08T00:06:11.478Z,52.00
2018-12-08T00:08:41.941Z,51.90
2018-12-08T00:11:13.972Z,51.10
2018-12-08T00:13:46.169Z,51.00
2018-12-08T00:16:20.143Z,50.70
2018-12-08T00:18:58.753Z,50.40
2018-12-08T00:21:33.352Z,50.00
2018-12-08T00:24:05.688Z,49.80
2018-12-08T00:26:40.612Z,50.00
2018-12-08T00:29:12.597Z,50.20
2018-12-08T00:31:44.874Z,50.10
2018-12-08T00:34:19.661Z,50.00
2018-12-08T00:36:53.848Z,50.30
2018-12-08T00:39:23.814Z,50.10
2018-12-08T00:41:56.001Z,50.00
2018-12-08T00:44:30.037Z,49.70
2018-12-08T00:47:03.832Z,49.90
2018-12-08T00:49:35.689Z,49.70
2018-12-08T00:52:07.204Z,50.50
2018-12-08T00:54:40.958Z,49.70
2018-12-08T00:57:15.018Z,49.30
2018-12-08T00:59:46.635Z,49.70
2018-12-08T01:04:50.993Z,50.90
2018-12-08T01:07:24.952Z,51.00
2018-12-08T01:09:55.148Z,51.40
2018-12-08T01:12:28.125Z,52.10
2018-12-08T01:14:58.341Z,52.30
2018-12-08T01:17:30.533Z,51.10
2018-12-08T01:20:02.796Z,51.40
2018-12-08T01:22:36.496Z,51.20
2018-12-08T01:25:06.600Z,51.10
2018-12-08T01:27:38.383Z,51.00
2018-12-08T01:30:09.980Z,51.20
2018-12-08T01:32:41.778Z,51.90
2018-12-08T01:35:14.244Z,52.10
2018-12-08T01:37:48.473Z,52.40
2018-12-08T01:40:23.004Z,52.30
2018-12-08T01:42:57.178Z,52.10
2018-12-08T01:45:29.062Z,52.00
2018-12-08T01:48:02.837Z,51.70
2018-12-08T01:50:35.149Z,52.10
2018-12-08T01:53:08.944Z,51.90
2018-12-08T01:55:38.667Z,51.90
2018-12-08T01:58:10.165Z,51.30
2018-12-08T02:00:43.251Z,51.50
2018-12-08T02:03:15.795Z,51.10
2018-12-08T02:05:49.953Z,51.70
2018-12-08T02:08:21.519Z,51.50
2018-12-08T02:10:57.983Z,51.30
2018-12-08T02:13:47.448Z,51.70
2018-12-08T02:16:20.028Z,52.00
2018-12-08T02:18:49.745Z,51.50
2018-12-08T02:21:25.260Z,50.90
2018-12-08T02:23:59.350Z,51.30
2018-12-08T02:26:34.422Z,51.60
2018-12-08T02:29:04.884Z,51.90
2018-12-08T02:31:36.910Z,52.00
2018-12-08T02:34:09.172Z,52.20
2018-12-08T02:36:42.083Z,52.20
2018-12-08T02:39:13.883Z,52.30
2018-12-08T02:41:48.587Z,52.40
2018-12-08T02:44:20.265Z,52.80
2018-12-08T02:46:54.852Z,53.30
2018-12-08T02:49:30.992Z,53.80
2018-12-08T02:52:05.647Z,54.40
2018-12-08T02:54:38.053Z,55.00
2018-12-08T02:57:12.171Z,54.60
2018-12-08T02:59:47.014Z,54.20
2018-12-08T03:02:19.074Z,54.20
2018-12-08T03:04:49.784Z,54.70
2018-12-08T03:07:22.026Z,54.90
2018-12-08T03:09:53.947Z,54.90
2018-12-08T03:12:25.212Z,54.70
2018-12-08T03:14:56.563Z,54.80
2018-12-08T03:17:31.147Z,54.80
2018-12-08T03:20:05.154Z,54.90
2018-12-08T03:22:37.059Z,54.80
2018-12-08T03:25:08.478Z,55.10
2018-12-08T03:27:36.959Z,54.30
2018-12-08T03:30:05.712Z,53.70
2018-12-08T03:35:35.455Z,53.20
2018-12-08T03:38:03.719Z,53.00
2018-12-08T03:40:32.013Z,53.20
2018-12-08T03:46:01.214Z,52.80
2018-12-08T03:48:29.506Z,53.40
2018-12-08T03:50:57.979Z,53.40
2018-12-08T03:56:20.389Z,52.90
2018-12-08T03:58:48.621Z,51.90
2018-12-08T04:50:27.891Z,54.00
2018-12-08T04:53:00.284Z,54.00
2018-12-08T04:55:34.991Z,53.90
2018-12-08T04:58:05.244Z,54.40
2018-12-08T05:00:39.253Z,54.40
2018-12-08T05:03:13.771Z,54.50
2018-12-08T05:05:48.295Z,54.30
2018-12-08T05:08:22.322Z,54.50
2018-12-08T05:10:54.519Z,54.80
2018-12-08T05:13:26.739Z,55.20
2018-12-08T05:15:58.684Z,55.90
2018-12-08T05:18:30.229Z,56.10
2018-12-08T05:21:02.132Z,56.80
2018-12-08T05:23:36.456Z,57.20
2018-12-08T05:26:08.343Z,57.40
2018-12-08T05:28:39.675Z,57.20
2018-12-08T05:31:11.675Z,57.60
2018-12-08T05:33:45.356Z,57.80
2018-12-08T05:36:17.039Z,58.30
2018-12-08T05:38:51.872Z,58.60
2018-12-08T05:41:26.303Z,59.50
2018-12-08T05:43:57.960Z,59.50
2018-12-08T05:46:31.140Z,59.70
2018-12-08T05:49:05.292Z,59.70
2018-12-08T05:54:32.443Z,59.70
2018-12-08T05:57:04.549Z,60.00
2018-12-08T05:59:39.264Z,60.10
2018-12-08T06:02:13.357Z,60.00
2018-12-08T06:04:43.992Z,60.00
2018-12-08T06:07:22.407Z,59.60
2018-12-08T06:09:52.224Z,59.30
2018-12-08T06:12:24.458Z,59.30
2018-12-08T06:14:59.219Z,59.40
2018-12-08T06:17:33.245Z,59.60
2018-12-08T06:20:11.426Z,59.50
2018-12-08T06:22:50.232Z,59.70
2018-12-08T06:25:26.549Z,59.50
2018-12-08T06:28:04.451Z,59.00
2018-12-08T06:30:39.376Z,58.80
2018-12-08T06:33:11.074Z,59.20
2018-12-08T06:35:43.488Z,58.70
2018-12-08T06:38:15.418Z,58.50
2018-12-08T06:40:46.942Z,58.40
2018-12-08T06:43:17.099Z,57.60
2018-12-08T06:45:49.306Z,57.20
2018-12-08T06:48:19.442Z,57.30
2018-12-08T06:50:51.546Z,57.00
2018-12-08T06:53:23.286Z,57.10
2018-12-08T06:55:55.341Z,56.90
2018-12-08T06:58:33.113Z,56.60
2018-12-08T07:01:06.101Z,56.10
2018-12-08T07:03:37.912Z,56.10
2018-12-08T07:09:12.945Z,55.60
2018-12-08T07:11:59.516Z,55.90
2018-12-08T07:14:33.717Z,55.70
2018-12-08T07:17:05.788Z,55.00
2018-12-08T07:19:37.965Z,54.70
2018-12-08T07:22:12.823Z,54.30
2018-12-08T07:24:44.820Z,54.10
2018-12-08T07:27:16.821Z,55.10
2018-12-08T07:29:50.928Z,54.50
2018-12-08T07:32:25.340Z,53.80
2018-12-08T07:34:57.013Z,54.10
2018-12-08T07:37:29.163Z,54.00
2018-12-08T07:40:01.029Z,53.40
2018-12-08T07:42:35.034Z,53.70
2018-12-08T07:45:08.996Z,53.60
2018-12-08T07:47:43.756Z,53.20
2018-12-08T07:50:17.797Z,52.50
2018-12-08T07:52:51.905Z,52.50
2018-12-08T07:55:26.141Z,52.70
2018-12-08T07:57:54.479Z,52.80
2018-12-08T08:00:22.741Z,52.30
2018-12-08T08:05:51.627Z,52.90
2018-12-08T08:08:20.079Z,52.30
2018-12-08T08:10:49.004Z,52.90
2018-12-08T08:16:15.179Z,51.90
2018-12-08T08:18:44.109Z,51.90
2018-12-08T08:21:12.641Z,51.20
2018-12-08T08:26:41.808Z,49.60
2018-12-08T08:29:10.023Z,49.70
2018-12-08T08:31:38.451Z,50.30
2018-12-08T08:37:09.629Z,48.90
2018-12-08T08:39:38.187Z,48.40
2018-12-08T08:45:00.679Z,49.00
2018-12-08T08:47:29.113Z,48.80
2018-12-08T08:49:58.307Z,48.30
2018-12-08T08:55:19.378Z,47.00
2018-12-08T08:57:47.869Z,47.60
2018-12-08T09:00:16.150Z,47.30
2018-12-08T09:05:44.935Z,45.90
2018-12-08T09:08:13.988Z,44.70
2018-12-08T09:10:43.048Z,42.50
2018-12-08T09:16:04.815Z,39.40
2018-12-08T09:18:34.283Z,39.60
2018-12-08T09:21:02.581Z,40.00
2018-12-08T09:26:32.610Z,41.20
2018-12-08T09:29:01.346Z,42.10
2018-12-08T09:31:30.630Z,43.90
2018-12-08T09:36:52.378Z,44.90
2018-12-08T09:39:21.363Z,44.80
2018-12-08T09:41:49.613Z,45.30
2018-12-08T09:47:10.871Z,44.90
2018-12-08T09:49:39.190Z,44.40
2018-12-08T09:55:00.900Z,44.90
2018-12-08T09:57:29.279Z,45.20
2018-12-08T09:59:58.495Z,45.50
2018-12-08T10:05:21.781Z,46.00
2018-12-08T10:07:55.998Z,45.90
2018-12-08T10:10:24.395Z,46.00
2018-12-08T10:15:45.682Z,45.60
2018-12-08T10:18:14.725Z,45.80
2018-12-08T10:20:43.987Z,46.00
2018-12-08T10:26:13.752Z,46.40
2018-12-08T10:28:42.056Z,47.00
2018-12-08T10:31:10.364Z,47.00
2018-12-08T10:36:33.447Z,47.10
2018-12-08T10:39:01.815Z,46.60
2018-12-08T10:41:30.126Z,46.40
2018-12-08T10:46:52.257Z,46.90
2018-12-08T10:49:20.708Z,47.70
2018-12-08T10:51:50.160Z,47.50
2018-12-08T12:09:16.538Z,56.00
2018-12-08T12:11:44.788Z,55.20
2018-12-08T12:25:45.161Z,53.40
2018-12-08T12:28:13.540Z,52.90
2018-12-08T12:30:42.237Z,53.30
2018-12-08T12:36:03.216Z,53.90
2018-12-08T12:38:31.556Z,54.10
2018-12-08T12:40:59.829Z,54.10
2018-12-08T12:46:21.999Z,55.10
2018-12-08T12:48:50.398Z,54.20
2018-12-08T12:51:18.716Z,54.80
2018-12-08T12:56:47.731Z,55.70
2018-12-08T12:59:16.004Z,56.80
2018-12-08T13:01:45.170Z,57.40
2018-12-08T13:07:06.555Z,57.00
2018-12-08T13:09:35.326Z,56.50
2018-12-08T13:12:03.963Z,56.40
2018-12-08T13:17:25.431Z,55.90
2018-12-08T13:19:53.681Z,56.30
2018-12-08T13:22:22.186Z,56.70
2018-12-08T13:27:43.456Z,56.60
2018-12-08T13:30:11.713Z,56.80
2018-12-08T13:32:40.120Z,56.10
2018-12-08T13:38:00.912Z,57.20
2018-12-08T13:40:29.327Z,57.50
2018-12-08T13:43:13.689Z,57.40
2018-12-08T13:45:42.040Z,57.00
2018-12-08T13:48:11.313Z,57.20
2018-12-08T13:50:40.102Z,56.20
2018-12-08T13:56:01.739Z,56.30
2018-12-08T13:58:31.179Z,56.30
2018-12-08T14:00:59.606Z,56.80
2018-12-08T14:06:28.643Z,57.10
2018-12-08T14:08:57.674Z,56.90
2018-12-08T14:11:25.942Z,56.70
2018-12-08T14:16:48.405Z,57.40
2018-12-08T14:19:16.809Z,56.60
2018-12-08T14:21:45.074Z,57.00
2018-12-08T14:27:06.604Z,57.10
2018-12-08T14:29:35.361Z,57.90
2018-12-08T14:32:03.594Z,58.20
2018-12-08T14:37:25.229Z,58.00
2018-12-08T14:39:53.451Z,58.90
2018-12-08T14:42:21.840Z,58.50
2018-12-08T14:47:43.064Z,59.30
2018-12-08T14:50:11.633Z,59.50
2018-12-08T14:52:39.867Z,59.80
2018-12-08T14:58:00.734Z,59.50
2018-12-08T15:00:29.530Z,59.20
2018-12-08T15:02:59.123Z,59.30
2018-12-08T15:08:20.532Z,58.90
2018-12-08T15:10:48.744Z,58.70
2018-12-08T15:16:09.824Z,57.40
2018-12-08T15:18:38.099Z,57.40
2018-12-08T15:21:08.408Z,57.50
2018-12-08T15:26:37.703Z,58.70
2018-12-08T15:29:05.960Z,59.80
2018-12-08T15:31:34.213Z,60.20
2018-12-08T15:36:55.067Z,60.70
2018-12-08T15:39:23.359Z,60.10
2018-12-08T15:41:52.314Z,60.70
2018-12-08T15:47:14.227Z,61.30
2018-12-08T15:49:42.640Z,61.20
2018-12-08T15:52:11.903Z,61.30
2018-12-08T15:57:32.751Z,62.30
2018-12-08T16:00:01.055Z,61.80
2018-12-08T16:02:29.508Z,62.00
2018-12-08T16:07:51.424Z,61.70
2018-12-08T16:10:19.787Z,61.10
2018-12-08T16:12:48.011Z,60.50
2018-12-08T16:18:09.531Z,60.80
2018-12-08T16:20:37.814Z,60.70
2018-12-08T16:23:06.375Z,60.70
2018-12-08T16:28:28.302Z,60.20
2018-12-08T16:30:56.616Z,60.10
2018-12-08T16:33:24.860Z,60.10
2018-12-08T16:38:53.733Z,60.40
2018-12-08T16:41:22.139Z,60.30
2018-12-08T16:46:51.092Z,60.80
2018-12-08T16:49:19.522Z,60.90
2018-12-08T16:51:47.722Z,60.30
2018-12-08T16:57:16.928Z,60.60
2018-12-08T16:59:45.215Z,60.40
2018-12-08T17:02:13.596Z,60.60
2018-12-08T17:07:57.258Z,59.40
2018-12-08T17:10:31.224Z,58.80
2018-12-08T17:13:04.329Z,58.60
2018-12-08T17:15:36.757Z,58.10
2018-12-08T17:18:11.597Z,58.20
2018-12-08T17:20:45.818Z,57.60
2018-12-08T17:23:17.578Z,57.70
2018-12-08T17:25:54.543Z,58.20
2018-12-08T17:28:35.160Z,58.30
2018-12-08T17:31:06.820Z,57.40
2018-12-08T17:33:39.171Z,57.60
2018-12-08T17:36:10.573Z,57.50
2018-12-08T17:38:40.116Z,57.70
2018-12-08T17:41:14.433Z,57.70
2018-12-08T17:43:48.312Z,57.70
2018-12-08T17:46:20.561Z,57.60
2018-12-08T17:48:55.105Z,57.70
2018-12-08T17:51:26.861Z,58.10
2018-12-08T17:56:49.501Z,57.40
2018-12-08T17:59:21.825Z,57.80
2018-12-08T18:01:54.058Z,58.80
2018-12-08T18:04:28.435Z,60.00
2018-12-08T18:06:59.815Z,60.50
2018-12-08T18:09:38.407Z,60.30
2018-12-08T18:12:10.645Z,61.00
2018-12-08T18:14:42.342Z,60.90
2018-12-08T18:17:16.849Z,60.90
2018-12-08T18:19:51.127Z,60.80
2018-12-08T18:22:23.201Z,60.50
2018-12-08T18:24:55.416Z,60.80
2018-12-08T18:30:22.863Z,61.60
2018-12-08T18:35:51.456Z,62.00
2018-12-08T18:38:19.795Z,62.00
2018-12-08T18:40:48.058Z,61.80
2018-12-08T18:46:09.345Z,61.10
2018-12-08T18:48:37.592Z,61.50
2018-12-08T18:51:06.005Z,61.60
2018-12-08T18:56:27.579Z,60.70
2018-12-08T18:58:55.888Z,60.80
2018-12-08T19:01:25.635Z,61.10
2018-12-08T19:06:54.286Z,60.40
2018-12-08T19:09:23.362Z,60.50
2018-12-08T19:11:52.224Z,61.00
2018-12-08T19:17:14.263Z,61.20
2018-12-08T19:19:42.619Z,61.00
2018-12-08T19:22:10.919Z,61.10
2018-12-08T19:27:40.089Z,60.20
2018-12-08T19:30:09.501Z,59.90
2018-12-08T19:32:38.419Z,59.40
2018-12-08T19:38:01.056Z,59.20
2018-12-08T19:40:29.946Z,58.90
2018-12-08T19:42:58.188Z,59.00
2018-12-08T19:48:18.874Z,59.10
2018-12-08T19:50:47.195Z,59.50
2018-12-08T19:56:16.378Z,58.80
2018-12-08T19:58:45.468Z,58.60
2018-12-08T20:01:13.947Z,58.90
2018-12-08T20:06:43.370Z,58.80
2018-12-08T20:09:11.781Z,58.00
2018-12-08T20:11:40.052Z,58.30
2018-12-08T20:17:00.942Z,57.30
2018-12-08T20:19:29.838Z,57.50
2018-12-08T20:21:58.227Z,57.40
2018-12-08T20:27:27.233Z,57.10
2018-12-08T20:29:55.571Z,57.40
2018-12-08T20:32:23.815Z,57.00
2018-12-08T20:37:53.096Z,57.10
2018-12-08T20:40:22.375Z,57.60
2018-12-08T20:42:50.686Z,57.60
2018-12-08T20:48:20.004Z,58.70
2018-12-08T20:50:48.315Z,58.80
2018-12-08T20:53:16.559Z,58.70
2018-12-08T20:58:53.834Z,58.30
2018-12-08T21:01:22.763Z,58.20
2018-12-08T21:06:52.069Z,58.20
2018-12-08T21:09:20.891Z,58.00
2018-12-08T21:11:49.383Z,57.60
2018-12-08T21:17:10.007Z,56.60
2018-12-08T21:19:38.240Z,56.40
2018-12-08T21:22:06.555Z,56.70
2018-12-08T21:27:35.710Z,56.80
2018-12-08T21:30:04.154Z,56.70
2018-12-08T21:32:32.541Z,56.90
2018-12-08T21:38:01.304Z,56.40
2018-12-08T21:40:30.651Z,56.20
2018-12-08T21:42:59.030Z,56.20
2018-12-08T21:48:20.950Z,55.70
2018-12-08T21:50:49.262Z,55.00
2018-12-08T21:53:17.515Z,54.40
2018-12-08T21:58:46.806Z,54.00
2018-12-08T22:01:15.176Z,53.50
2018-12-08T22:03:43.751Z,51.70
2018-12-08T22:09:06.366Z,51.20
2018-12-08T22:11:34.666Z,52.30
2018-12-08T22:16:56.240Z,53.20
2018-12-08T22:19:24.541Z,53.20
2018-12-08T22:21:52.831Z,53.20
2018-12-08T22:27:15.190Z,51.40
2018-12-08T22:29:49.074Z,51.10
2018-12-08T22:32:20.956Z,51.30
2018-12-08T22:34:52.480Z,51.60
2018-12-08T22:37:26.185Z,52.80
2018-12-08T22:40:00.760Z,53.80
2018-12-08T22:42:32.603Z,54.10
2018-12-08T22:45:04.772Z,54.10
2018-12-08T22:47:35.012Z,54.00
2018-12-08T22:50:06.276Z,55.20
2018-12-08T22:52:37.179Z,56.00
2018-12-08T22:55:11.583Z,56.60
2018-12-08T22:57:41.195Z,57.10
2018-12-08T23:00:24.885Z,56.90
2018-12-08T23:05:40.188Z,56.30
2018-12-08T23:08:15.120Z,55.80
2018-12-08T23:10:46.439Z,55.60
2018-12-08T23:13:20.496Z,55.30
2018-12-08T23:15:52.479Z,55.00
2018-12-08T23:18:22.434Z,54.60
2018-12-08T23:20:54.552Z,53.50
2018-12-08T23:23:30.331Z,53.40
2018-12-08T23:26:04.733Z,53.00
2018-12-08T23:28:36.350Z,53.10
2018-12-08T23:31:07.239Z,53.10
2018-12-08T23:33:39.247Z,53.40
2018-12-08T23:36:11.467Z,53.80
2018-12-08T23:38:45.328Z,53.80
2018-12-08T23:41:15.452Z,54.10
2018-12-08T23:43:47.464Z,54.30
2018-12-08T23:46:17.018Z,54.30
2018-12-08T23:48:49.293Z,55.30
2018-12-08T23:51:20.991Z,56.10
2018-12-08T23:53:54.811Z,56.60
2018-12-08T23:59:19.594Z,56.60
